Jinnah International Airport
OPKC : now visible

Airfield :











YOU CAN JOIN US ON...

 
LOGIN :

Register | Disclaimer

   EN    FR    IT 

 









Legend :    VFR   Marginal VFR   IFR   Intensive IFR   Very Intensive IFR
Visi :
Ceiling :
>= 8 km
>= 3000ft
5 to 8 km
1000 to 3000 ft
1500m to 5 km
500 to 1000 ft
800 to 1500m
200 to 500 ft
< 800m
< 200 ft
Symbols :   Thunderstorms  Fog  Heavy snow  Heavy precipitations  Wind > 20 kt






- Airport Elevation : 100 ft
- IATA code : KHI


OPKC - Jinnah International

CURRENT METAR :
  • 251156Z 22007KT 5000 HZ NSC 25/09 Q1014 NOSIG

EXPIRED METARs :
  • 251129Z 23010KT 5000 HZ NSC 25/09 Q1014 NOSIG
  • 251059Z 25006KT 5000 HZ NSC 26/090 Q1014 NOSIG
  • 251025Z 22007KT 5000 HZ NSC 26/10 Q1014 NOSIG
  • 250955Z 30004KT 5000 HZ NSC 27/07 Q1014 NOSIG
  • 250925Z 29006KT 4000 HZ SCT150 26/07 Q1014 NOSIG

TAF TAF OPKC
Valid from the 25 at 12:00 until the 26 at 18:00 UTC


251000Z 2512/2618 27005G15KT 6000 SCT040
BECMG 2518/2520 34010KT
TEMPO 2601/2705 VRB03KT 25000 HZ SCT040



MET'MAP, your aeronautical weather chart ! - Copyright ORBIFLY December 2007 - Disclaimer

ORBIFLY MET'MAP TEAM :

Programming & Development : Alexandra Zaïnal
Concept & original design : Baudouin d'Aumeries
Assistance for programming : Marc-Olivier Méhu
Technical & hardware support : Manuel Goepfert

Contact : metmap@orbifly.com




SOURCES & CREDITS :

   NOAA       Earth
Advisory